sensor_id;sensor_type;location;lat;lon;timestamp;pressure;altitude;pressure_sealevel;temperature;humidity
10006;BME280;5042;42.626;23.382;2024-01-25T00:00:04;149957.69;;;3.44;100.00
10006;BME280;5042;42.626;23.382;2024-01-25T00:02:31;149930.63;;;3.33;100.00
10006;BME280;5042;42.626;23.382;2024-01-25T00:05:00;149893.25;;;3.18;100.00
10006;BME280;5042;42.626;23.382;2024-01-25T00:07:27;149866.16;;;3.07;100.00
10006;BME280;5042;42.626;23.382;2024-01-25T00:09:54;149862.25;;;3.06;100.00
10006;BME280;5042;42.626;23.382;2024-01-25T00:12:20;149848.09;;;3.00;100.00
10006;BME280;5042;42.626;23.382;2024-01-25T00:14:47;149857.09;;;3.04;100.00
10006;BME280;5042;42.626;23.382;2024-01-25T00:17:14;149885.47;;;3.15;100.00
10006;BME280;5042;42.626;23.382;2024-01-25T00:19:41;149888.09;;;3.16;100.00
10006;BME280;5042;42.626;23.382;2024-01-25T00:22:09;149880.31;;;3.13;100.00
10006;BME280;5042;42.626;23.382;2024-01-25T00:24:36;149880.31;;;3.13;100.00
10006;BME280;5042;42.626;23.382;2024-01-25T00:27:03;149880.31;;;3.13;100.00
10006;BME280;5042;42.626;23.382;2024-01-25T00:29:31;149890.66;;;3.17;100.00
10006;BME280;5042;42.626;23.382;2024-01-25T00:31:58;149906.13;;;3.23;100.00
10006;BME280;5042;42.626;23.382;2024-01-25T00:34:25;149920.31;;;3.29;100.00
10006;BME280;5042;42.626;23.382;2024-01-25T00:36:52;149952.53;;;3.42;100.00
10006;BME280;5042;42.626;23.382;2024-01-25T00:39:22;149980.91;;;3.53;100.00
10006;BME280;5042;42.626;23.382;2024-01-25T00:41:51;149989.94;;;3.56;100.00
10006;BME280;5042;42.626;23.382;2024-01-25T00:44:19;149975.75;;;3.51;100.00
10006;BME280;5042;42.626;23.382;2024-01-25T00:46:46;149966.72;;;3.47;100.00
10006;BME280;5042;42.626;23.382;2024-01-25T00:49:14;149991.22;;;3.57;100.00
10006;BME280;5042;42.626;23.382;2024-01-25T00:51:45;150013.19;;;3.66;100.00
10006;BME280;5042;42.626;23.382;2024-01-25T00:54:14;150037.69;;;3.75;100.00
10006;BME280;5042;42.626;23.382;2024-01-25T00:56:43;150047.97;;;3.79;100.00
10006;BME280;5042;42.626;23.382;2024-01-25T00:59:10;150068.63;;;3.88;100.00
10006;BME280;5042;42.626;23.382;2024-01-25T01:01:38;150104.75;;;4.02;100.00
10006;BME280;5042;42.626;23.382;2024-01-25T01:04:07;150122.81;;;4.09;100.00
10006;BME280;5042;42.626;23.382;2024-01-25T01:06:35;150122.81;;;4.09;100.00
10006;BME280;5042;42.626;23.382;2024-01-25T01:09:02;150130.53;;;4.12;100.00
10006;BME280;5042;42.626;23.382;2024-01-25T01:11:29;150126.72;;;4.11;100.00
10006;BME280;5042;42.626;23.382;2024-01-25T01:13:57;150108.63;;;4.03;100.00
10006;BME280;5042;42.626;23.382;2024-01-25T01:16:24;150094.41;;;3.98;100.00
10006;BME280;5042;42.626;23.382;2024-01-25T01:18:51;150068.63;;;3.88;100.00
10006;BME280;5042;42.626;23.382;2024-01-25T01:21:18;150066.03;;;3.87;100.00
10006;BME280;5042;42.626;23.382;2024-01-25T01:23:46;150064.75;;;3.86;100.00
10006;BME280;5042;42.626;23.382;2024-01-25T01:26:13;150091.84;;;3.97;100.00
10006;BME280;5042;42.626;23.382;2024-01-25T01:28:40;150104.75;;;4.02;100.00
10006;BME280;5042;42.626;23.382;2024-01-25T01:31:08;150098.31;;;3.99;100.00
10006;BME280;5042;42.626;23.382;2024-01-25T01:33:35;150063.47;;;3.86;100.00
10006;BME280;5042;42.626;23.382;2024-01-25T01:36:02;150095.69;;;3.98;100.00
10006;BME280;5042;42.626;23.382;2024-01-25T01:38:29;150069.91;;;3.88;100.00
10006;BME280;5042;42.626;23.382;2024-01-25T01:40:56;150078.97;;;3.92;100.00
10006;BME280;5042;42.626;23.382;2024-01-25T01:43:23;150051.84;;;3.81;100.00
10006;BME280;5042;42.626;23.382;2024-01-25T01:45:50;149929.34;;;3.32;100.00
10006;BME280;5042;42.626;23.382;2024-01-25T01:48:18;150051.84;;;3.81;100.00
10006;BME280;5042;42.626;23.382;2024-01-25T01:50:45;150067.34;;;3.87;100.00
10006;BME280;5042;42.626;23.382;2024-01-25T01:53:14;150054.47;;;3.82;100.00
10006;BME280;5042;42.626;23.382;2024-01-25T01:55:42;150068.63;;;3.88;100.00
10006;BME280;5042;42.626;23.382;2024-01-25T01:58:09;150084.09;;;3.94;100.00
10006;BME280;5042;42.626;23.382;2024-01-25T02:00:37;150090.59;;;3.96;100.00
10006;BME280;5042;42.626;23.382;2024-01-25T02:03:06;150103.47;;;4.01;100.00
10006;BME280;5042;42.626;23.382;2024-01-25T02:05:34;150112.47;;;4.05;100.00
10006;BME280;5042;42.626;23.382;2024-01-25T02:08:02;150121.53;;;4.09;100.00
10006;BME280;5042;42.626;23.382;2024-01-25T02:10:29;150104.75;;;4.02;100.00
10006;BME280;5042;42.626;23.382;2024-01-25T02:12:56;150104.75;;;4.02;100.00
10006;BME280;5042;42.626;23.382;2024-01-25T02:15:23;150106.03;;;4.02;100.00
10006;BME280;5042;42.626;23.382;2024-01-25T02:17:50;150097.03;;;3.99;100.00
10006;BME280;5042;42.626;23.382;2024-01-25T02:20:18;150037.69;;;3.75;100.00
10006;BME280;5042;42.626;23.382;2024-01-25T02:22:46;150087.97;;;3.95;100.00
10006;BME280;5042;42.626;23.382;2024-01-25T02:25:13;149940.97;;;3.37;100.00
10006;BME280;5042;42.626;23.382;2024-01-25T02:27:40;149989.94;;;3.56;100.00
10006;BME280;5042;42.626;23.382;2024-01-25T02:30:08;149959.00;;;3.44;100.00
10006;BME280;5042;42.626;23.382;2024-01-25T02:32:35;149947.41;;;3.39;100.00
10006;BME280;5042;42.626;23.382;2024-01-25T02:35:01;149926.75;;;3.31;100.00
10006;BME280;5042;42.626;23.382;2024-01-25T02:37:28;149965.47;;;3.47;100.00
10006;BME280;5042;42.626;23.382;2024-01-25T02:39:57;149965.47;;;3.47;100.00
10006;BME280;5042;42.626;23.382;2024-01-25T02:42:24;149951.25;;;3.41;100.00
10006;BME280;5042;42.626;23.382;2024-01-25T02:44:51;149884.19;;;3.14;100.00
10006;BME280;5042;42.626;23.382;2024-01-25T02:47:17;149882.91;;;3.14;100.00
10006;BME280;5042;42.626;23.382;2024-01-25T02:49:44;149839.06;;;2.96;100.00
10006;BME280;5042;42.626;23.382;2024-01-25T02:52:11;149819.72;;;2.89;100.00
10006;BME280;5042;42.626;23.382;2024-01-25T02:54:38;149777.19;;;2.72;100.00
10006;BME280;5042;42.626;23.382;2024-01-25T02:57:06;149766.88;;;2.68;100.00
10006;BME280;5042;42.626;23.382;2024-01-25T02:59:33;149761.75;;;2.66;100.00
10006;BME280;5042;42.626;23.382;2024-01-25T03:02:00;149746.28;;;2.60;100.00
10006;BME280;5042;42.626;23.382;2024-01-25T03:04:27;149747.56;;;2.60;100.00
10006;BME280;5042;42.626;23.382;2024-01-25T03:06:54;149726.97;;;2.52;100.00
10006;BME280;5042;42.626;23.382;2024-01-25T03:09:21;149720.53;;;2.49;100.00
10006;BME280;5042;42.626;23.382;2024-01-25T03:11:49;149739.84;;;2.57;100.00
10006;BME280;5042;42.626;23.382;2024-01-25T03:14:17;149795.25;;;2.79;100.00
10006;BME280;5042;42.626;23.382;2024-01-25T03:16:44;149806.84;;;2.84;100.00
10006;BME280;5042;42.626;23.382;2024-01-25T03:19:11;149808.13;;;2.84;100.00
10006;BME280;5042;42.626;23.382;2024-01-25T03:21:38;149903.53;;;3.22;100.00
10006;BME280;5042;42.626;23.382;2024-01-25T03:24:05;150057.03;;;3.83;100.00
10006;BME280;5042;42.626;23.382;2024-01-25T03:26:32;149949.97;;;3.40;100.00
10006;BME280;5042;42.626;23.382;2024-01-25T03:28:59;150373.25;;;5.08;100.00
10006;BME280;5042;42.626;23.382;2024-01-25T03:31:27;150546.34;;;5.77;100.00
10006;BME280;5042;42.626;23.382;2024-01-25T03:33:54;150692.41;;;6.35;100.00
10006;BME280;5042;42.626;23.382;2024-01-25T03:36:21;150758.34;;;6.61;100.00
10006;BME280;5042;42.626;23.382;2024-01-25T03:38:48;150789.38;;;6.73;100.00
10006;BME280;5042;42.626;23.382;2024-01-25T03:41:15;150851.47;;;6.98;100.00
10006;BME280;5042;42.626;23.382;2024-01-25T03:43:42;150904.50;;;7.19;100.00
10006;BME280;5042;42.626;23.382;2024-01-25T03:46:10;150916.09;;;7.23;100.00
10006;BME280;5042;42.626;23.382;2024-01-25T03:48:38;150888.97;;;7.13;100.00
10006;BME280;5042;42.626;23.382;2024-01-25T03:51:05;150938.09;;;7.32;100.00
10006;BME280;5042;42.626;23.382;2024-01-25T03:53:31;150970.47;;;7.45;100.00
10006;BME280;5042;42.626;23.382;2024-01-25T03:55:58;150965.28;;;7.43;100.00
10006;BME280;5042;42.626;23.382;2024-01-25T03:58:25;150970.47;;;7.45;100.00
10006;BME280;5042;42.626;23.382;2024-01-25T04:00:52;150975.63;;;7.47;100.00
10006;BME280;5042;42.626;23.382;2024-01-25T04:03:19;150965.28;;;7.43;100.00
10006;BME280;5042;42.626;23.382;2024-01-25T04:05:48;150758.34;;;6.61;100.00
10006;BME280;5042;42.626;23.382;2024-01-25T04:08:14;150993.72;;;7.54;100.00
10006;BME280;5042;42.626;23.382;2024-01-25T04:10:41;151011.84;;;7.61;100.00
10006;BME280;5042;42.626;23.382;2024-01-25T04:13:08;151011.84;;;7.61;100.00
10006;BME280;5042;42.626;23.382;2024-01-25T04:15:35;151027.38;;;7.68;100.00
10006;BME280;5042;42.626;23.382;2024-01-25T04:18:02;151042.94;;;7.74;100.00
10006;BME280;5042;42.626;23.382;2024-01-25T04:20:29;151039.03;;;7.72;100.00
10006;BME280;5042;42.626;23.382;2024-01-25T04:22:58;151068.81;;;7.84;100.00
10006;BME280;5042;42.626;23.382;2024-01-25T04:25:25;151088.22;;;7.92;100.00
10006;BME280;5042;42.626;23.382;2024-01-25T04:27:52;151103.75;;;7.98;100.00
10006;BME280;5042;42.626;23.382;2024-01-25T04:30:19;151102.47;;;7.97;100.00
10006;BME280;5042;42.626;23.382;2024-01-25T04:32:46;151106.31;;;7.99;100.00
10006;BME280;5042;42.626;23.382;2024-01-25T04:35:12;151116.69;;;8.03;100.00
10006;BME280;5042;42.626;23.382;2024-01-25T04:37:38;151092.09;;;7.93;100.00
10006;BME280;5042;42.626;23.382;2024-01-25T04:40:08;151055.88;;;7.79;100.00
10006;BME280;5042;42.626;23.382;2024-01-25T04:42:35;151049.41;;;7.76;100.00
10006;BME280;5042;42.626;23.382;2024-01-25T04:45:02;151071.38;;;7.85;100.00
10006;BME280;5042;42.626;23.382;2024-01-25T04:47:29;151075.28;;;7.86;100.00
10006;BME280;5042;42.626;23.382;2024-01-25T04:49:56;151063.63;;;7.82;100.00
10006;BME280;5042;42.626;23.382;2024-01-25T04:52:23;151072.69;;;7.85;100.00
10006;BME280;5042;42.626;23.382;2024-01-25T04:54:50;151039.03;;;7.72;100.00
10006;BME280;5042;42.626;23.382;2024-01-25T04:57:18;151031.28;;;7.69;100.00
10006;BME280;5042;42.626;23.382;2024-01-25T04:59:45;151027.38;;;7.68;100.00
10006;BME280;5042;42.626;23.382;2024-01-25T05:02:12;151002.81;;;7.58;100.00
10006;BME280;5042;42.626;23.382;2024-01-25T05:04:40;150975.63;;;7.47;100.00
10006;BME280;5042;42.626;23.382;2024-01-25T05:07:07;150966.59;;;7.43;100.00
10006;BME280;5042;42.626;23.382;2024-01-25T05:09:34;150954.94;;;7.39;100.00
10006;BME280;5042;42.626;23.382;2024-01-25T05:12:00;150922.63;;;7.26;100.00
10006;BME280;5042;42.626;23.382;2024-01-25T05:14:29;150957.50;;;7.40;100.00
10006;BME280;5042;42.626;23.382;2024-01-25T05:16:56;150952.31;;;7.38;100.00
10006;BME280;5042;42.626;23.382;2024-01-25T05:19:22;150942.00;;;7.34;100.00
10006;BME280;5042;42.626;23.382;2024-01-25T05:21:50;150894.16;;;7.15;100.00
10006;BME280;5042;42.626;23.382;2024-01-25T05:24:17;150888.97;;;7.13;100.00
10006;BME280;5042;42.626;23.382;2024-01-25T05:26:44;150909.63;;;7.21;100.00
10006;BME280;5042;42.626;23.382;2024-01-25T05:29:11;150936.81;;;7.32;100.00
10006;BME280;5042;42.626;23.382;2024-01-25T05:31:39;150940.72;;;7.33;100.00
10006;BME280;5042;42.626;23.382;2024-01-25T05:34:06;150930.38;;;7.29;100.00
10006;BME280;5042;42.626;23.382;2024-01-25T05:36:33;150934.22;;;7.31;100.00
10006;BME280;5042;42.626;23.382;2024-01-25T05:39:00;150944.56;;;7.35;100.00
10006;BME280;5042;42.626;23.382;2024-01-25T05:41:32;150943.28;;;7.34;100.00
10006;BME280;5042;42.626;23.382;2024-01-25T05:43:59;150943.28;;;7.34;100.00
10006;BME280;5042;42.626;23.382;2024-01-25T05:46:25;150921.28;;;7.26;100.00
10006;BME280;5042;42.626;23.382;2024-01-25T05:48:54;150961.41;;;7.41;99.30
10006;BME280;5042;42.626;23.382;2024-01-25T05:51:21;150962.69;;;7.42;98.76
10006;BME280;5042;42.626;23.382;2024-01-25T05:53:48;150953.66;;;7.38;99.11
10006;BME280;5042;42.626;23.382;2024-01-25T05:56:15;150963.97;;;7.42;100.00
10006;BME280;5042;42.626;23.382;2024-01-25T05:58:42;150958.84;;;7.40;100.00
10006;BME280;5042;42.626;23.382;2024-01-25T06:01:09;150936.81;;;7.32;100.00
10006;BME280;5042;42.626;23.382;2024-01-25T06:03:35;150952.31;;;7.38;100.00
10006;BME280;5042;42.626;23.382;2024-01-25T06:06:04;150962.69;;;7.42;100.00
10006;BME280;5042;42.626;23.382;2024-01-25T06:08:33;150952.31;;;7.38;100.00
10006;BME280;5042;42.626;23.382;2024-01-25T06:11:00;150942.00;;;7.34;100.00
10006;BME280;5042;42.626;23.382;2024-01-25T06:13:27;150926.47;;;7.28;100.00
10006;BME280;5042;42.626;23.382;2024-01-25T06:15:53;150910.97;;;7.21;100.00
10006;BME280;5042;42.626;23.382;2024-01-25T06:18:20;150904.50;;;7.19;100.00
10006;BME280;5042;42.626;23.382;2024-01-25T06:20:47;150812.66;;;6.83;100.00
10006;BME280;5042;42.626;23.382;2024-01-25T06:23:17;150895.44;;;7.15;100.00
10006;BME280;5042;42.626;23.382;2024-01-25T06:25:44;150913.53;;;7.22;100.00
10006;BME280;5042;42.626;23.382;2024-01-25T06:28:11;150895.44;;;7.15;100.00
10006;BME280;5042;42.626;23.382;2024-01-25T06:30:37;150887.69;;;7.12;100.00
10006;BME280;5042;42.626;23.382;2024-01-25T06:33:05;150881.22;;;7.10;100.00
10006;BME280;5042;42.626;23.382;2024-01-25T06:35:32;150868.25;;;7.05;100.00
10006;BME280;5042;42.626;23.382;2024-01-25T06:37:59;150873.41;;;7.07;100.00
10006;BME280;5042;42.626;23.382;2024-01-25T06:40:27;150877.31;;;7.08;100.00
10006;BME280;5042;42.626;23.382;2024-01-25T06:42:54;150887.69;;;7.12;100.00
10006;BME280;5042;42.626;23.382;2024-01-25T06:45:21;150888.97;;;7.13;100.00
10006;BME280;5042;42.626;23.382;2024-01-25T06:47:48;150878.59;;;7.09;100.00
10006;BME280;5042;42.626;23.382;2024-01-25T06:50:15;150882.50;;;7.10;100.00
10006;BME280;5042;42.626;23.382;2024-01-25T06:52:42;150885.06;;;7.11;100.00
10006;BME280;5042;42.626;23.382;2024-01-25T06:55:09;150887.69;;;7.12;100.00
10006;BME280;5042;42.626;23.382;2024-01-25T06:57:38;150879.88;;;7.09;100.00
10006;BME280;5042;42.626;23.382;2024-01-25T07:00:06;150878.59;;;7.09;100.00
10006;BME280;5042;42.626;23.382;2024-01-25T07:02:35;150892.88;;;7.14;100.00
10006;BME280;5042;42.626;23.382;2024-01-25T07:05:02;150894.16;;;7.15;100.00
10006;BME280;5042;42.626;23.382;2024-01-25T07:07:30;150890.25;;;7.13;100.00
10006;BME280;5042;42.626;23.382;2024-01-25T07:09:57;150890.25;;;7.13;100.00
10006;BME280;5042;42.626;23.382;2024-01-25T07:12:24;150905.78;;;7.19;100.00
10006;BME280;5042;42.626;23.382;2024-01-25T07:14:53;150904.50;;;7.19;100.00
10006;BME280;5042;42.626;23.382;2024-01-25T07:17:20;150905.78;;;7.19;100.00
10006;BME280;5042;42.626;23.382;2024-01-25T07:19:47;150881.22;;;7.10;100.00
10006;BME280;5042;42.626;23.382;2024-01-25T07:22:14;150895.44;;;7.15;100.00
10006;BME280;5042;42.626;23.382;2024-01-25T07:24:42;150890.25;;;7.13;100.00
10006;BME280;5042;42.626;23.382;2024-01-25T07:27:09;150886.34;;;7.12;100.00
10006;BME280;5042;42.626;23.382;2024-01-25T07:29:36;150898.00;;;7.16;100.00
10006;BME280;5042;42.626;23.382;2024-01-25T07:32:05;150926.47;;;7.28;100.00
10006;BME280;5042;42.626;23.382;2024-01-25T07:34:32;150934.22;;;7.31;99.89
10006;BME280;5042;42.626;23.382;2024-01-25T07:36:59;150895.44;;;7.15;100.00
10006;BME280;5042;42.626;23.382;2024-01-25T07:39:26;150877.31;;;7.08;100.00
10006;BME280;5042;42.626;23.382;2024-01-25T07:41:53;150905.78;;;7.19;100.00
10006;BME280;5042;42.626;23.382;2024-01-25T07:44:20;150929.09;;;7.29;99.92
10006;BME280;5042;42.626;23.382;2024-01-25T07:46:47;150927.75;;;7.28;100.00
10006;BME280;5042;42.626;23.382;2024-01-25T07:49:15;150939.38;;;7.33;99.06
10006;BME280;5042;42.626;23.382;2024-01-25T07:51:42;150944.56;;;7.35;98.23
10006;BME280;5042;42.626;23.382;2024-01-25T07:54:09;150935.53;;;7.31;97.72
10006;BME280;5042;42.626;23.382;2024-01-25T07:56:36;150954.94;;;7.39;98.35
10006;BME280;5042;42.626;23.382;2024-01-25T07:59:03;150945.84;;;7.35;98.37
10006;BME280;5042;42.626;23.382;2024-01-25T08:01:30;150948.47;;;7.36;98.66
10006;BME280;5042;42.626;23.382;2024-01-25T08:03:57;150985.97;;;7.51;96.93
10006;BME280;5042;42.626;23.382;2024-01-25T08:06:26;150985.97;;;7.51;94.97
10006;BME280;5042;42.626;23.382;2024-01-25T08:08:53;150991.16;;;7.53;95.93
10006;BME280;5042;42.626;23.382;2024-01-25T08:11:20;151028.66;;;7.68;93.92
10006;BME280;5042;42.626;23.382;2024-01-25T08:13:48;151020.91;;;7.65;93.28
10006;BME280;5042;42.626;23.382;2024-01-25T08:16:15;151027.38;;;7.68;92.86
10006;BME280;5042;42.626;23.382;2024-01-25T08:18:44;151059.72;;;7.80;92.08
10006;BME280;5042;42.626;23.382;2024-01-25T08:21:12;151058.44;;;7.80;90.07
10006;BME280;5042;42.626;23.382;2024-01-25T08:23:41;151057.16;;;7.79;91.27
10006;BME280;5042;42.626;23.382;2024-01-25T08:26:08;151075.28;;;7.86;90.41
10006;BME280;5042;42.626;23.382;2024-01-25T08:28:39;151044.22;;;7.74;90.16
10006;BME280;5042;42.626;23.382;2024-01-25T08:31:07;151046.78;;;7.75;87.23
10006;BME280;5042;42.626;23.382;2024-01-25T08:33:34;151062.34;;;7.81;87.19
10006;BME280;5042;42.626;23.382;2024-01-25T08:36:01;151061.06;;;7.81;89.74
10006;BME280;5042;42.626;23.382;2024-01-25T08:38:28;151055.88;;;7.79;86.03
10006;BME280;5042;42.626;23.382;2024-01-25T08:40:56;151054.59;;;7.78;85.99
10006;BME280;5042;42.626;23.382;2024-01-25T08:43:23;151061.06;;;7.81;86.32
10006;BME280;5042;42.626;23.382;2024-01-25T08:45:50;151070.09;;;7.84;87.85
10006;BME280;5042;42.626;23.382;2024-01-25T08:48:17;151066.19;;;7.83;84.63
10006;BME280;5042;42.626;23.382;2024-01-25T08:50:44;151035.13;;;7.71;83.99
10006;BME280;5042;42.626;23.382;2024-01-25T08:53:11;151080.47;;;7.89;85.07
10006;BME280;5042;42.626;23.382;2024-01-25T08:55:39;151085.63;;;7.91;86.42
10006;BME280;5042;42.626;23.382;2024-01-25T08:58:08;151081.75;;;7.89;84.79
10006;BME280;5042;42.626;23.382;2024-01-25T09:00:35;151098.56;;;7.96;85.65
10006;BME280;5042;42.626;23.382;2024-01-25T09:03:02;151127.06;;;8.07;84.08
10006;BME280;5042;42.626;23.382;2024-01-25T09:05:28;151133.53;;;8.10;83.18
10006;BME280;5042;42.626;23.382;2024-01-25T09:07:54;151169.78;;;8.24;84.38
10006;BME280;5042;42.626;23.382;2024-01-25T09:10:21;151206.03;;;8.38;83.66
10006;BME280;5042;42.626;23.382;2024-01-25T09:12:48;151213.81;;;8.41;83.70
10006;BME280;5042;42.626;23.382;2024-01-25T09:15:16;151207.31;;;8.39;84.36
10006;BME280;5042;42.626;23.382;2024-01-25T09:17:43;151226.75;;;8.46;84.61
10006;BME280;5042;42.626;23.382;2024-01-25T09:20:10;151255.28;;;8.58;83.73
10006;BME280;5042;42.626;23.382;2024-01-25T09:22:37;151269.50;;;8.63;83.15
10006;BME280;5042;42.626;23.382;2024-01-25T09:25:05;151247.50;;;8.55;81.97
10006;BME280;5042;42.626;23.382;2024-01-25T09:27:33;151247.50;;;8.55;80.65
10006;BME280;5042;42.626;23.382;2024-01-25T09:29:59;151265.63;;;8.62;81.28
10006;BME280;5042;42.626;23.382;2024-01-25T09:32:28;151268.22;;;8.63;81.46
10006;BME280;5042;42.626;23.382;2024-01-25T09:34:55;151252.69;;;8.57;82.12
10006;BME280;5042;42.626;23.382;2024-01-25T09:37:21;151242.31;;;8.53;82.89
10006;BME280;5042;42.626;23.382;2024-01-25T09:39:49;151241.03;;;8.52;81.10
10006;BME280;5042;42.626;23.382;2024-01-25T09:42:16;151226.75;;;8.46;81.36
10006;BME280;5042;42.626;23.382;2024-01-25T09:44:43;151196.94;;;8.35;82.88
10006;BME280;5042;42.626;23.382;2024-01-25T09:47:11;151216.44;;;8.42;83.92
10006;BME280;5042;42.626;23.382;2024-01-25T09:49:41;151189.19;;;8.32;84.45
10006;BME280;5042;42.626;23.382;2024-01-25T09:52:12;151217.72;;;8.43;86.41
10006;BME280;5042;42.626;23.382;2024-01-25T09:54:39;151177.53;;;8.27;83.77
10006;BME280;5042;42.626;23.382;2024-01-25T09:57:11;151241.03;;;8.52;84.50
10006;BME280;5042;42.626;23.382;2024-01-25T09:59:40;151278.59;;;8.67;83.08
10006;BME280;5042;42.626;23.382;2024-01-25T10:02:08;151291.53;;;8.72;84.12
10006;BME280;5042;42.626;23.382;2024-01-25T10:04:36;151285.06;;;8.69;82.17
10006;BME280;5042;42.626;23.382;2024-01-25T10:07:04;151263.03;;;8.61;83.99
10006;BME280;5042;42.626;23.382;2024-01-25T10:09:38;151243.59;;;8.53;85.40
10006;BME280;5042;42.626;23.382;2024-01-25T10:12:05;151244.91;;;8.54;84.74
10006;BME280;5042;42.626;23.382;2024-01-25T10:14:32;151263.03;;;8.61;83.19
10006;BME280;5042;42.626;23.382;2024-01-25T10:17:00;151273.41;;;8.65;83.83
10006;BME280;5042;42.626;23.382;2024-01-25T10:19:28;151265.63;;;8.62;83.57
10006;BME280;5042;42.626;23.382;2024-01-25T10:21:55;151252.69;;;8.57;84.38
10006;BME280;5042;42.626;23.382;2024-01-25T10:24:24;151268.22;;;8.63;82.10
10006;BME280;5042;42.626;23.382;2024-01-25T10:26:51;151247.50;;;8.55;83.18
10006;BME280;5042;42.626;23.382;2024-01-25T10:29:18;151213.81;;;8.41;84.93
10006;BME280;5042;42.626;23.382;2024-01-25T10:31:45;151216.44;;;8.42;86.42
10006;BME280;5042;42.626;23.382;2024-01-25T10:34:13;151237.13;;;8.51;86.22
10006;BME280;5042;42.626;23.382;2024-01-25T10:36:41;151238.44;;;8.51;86.35
10006;BME280;5042;42.626;23.382;2024-01-25T10:39:09;151234.56;;;8.49;87.04
10006;BME280;5042;42.626;23.382;2024-01-25T10:41:37;151244.91;;;8.54;87.32
10006;BME280;5042;42.626;23.382;2024-01-25T10:44:04;151219.00;;;8.43;85.70
10006;BME280;5042;42.626;23.382;2024-01-25T10:46:33;151216.44;;;8.42;88.79
10006;BME280;5042;42.626;23.382;2024-01-25T10:49:01;151250.09;;;8.56;89.11
10006;BME280;5042;42.626;23.382;2024-01-25T10:51:30;151263.03;;;8.61;84.69
10006;BME280;5042;42.626;23.382;2024-01-25T10:53:57;151250.09;;;8.56;87.42
10006;BME280;5042;42.626;23.382;2024-01-25T10:56:25;151239.72;;;8.52;86.65
10006;BME280;5042;42.626;23.382;2024-01-25T10:58:53;151252.69;;;8.57;87.14
10006;BME280;5042;42.626;23.382;2024-01-25T11:01:20;151285.06;;;8.69;85.34
10006;BME280;5042;42.626;23.382;2024-01-25T11:03:47;151301.91;;;8.76;85.22
10006;BME280;5042;42.626;23.382;2024-01-25T11:06:14;151270.81;;;8.64;84.39
10006;BME280;5042;42.626;23.382;2024-01-25T11:08:41;151263.03;;;8.61;83.69
10006;BME280;5042;42.626;23.382;2024-01-25T11:11:11;151241.03;;;8.52;84.37
10006;BME280;5042;42.626;23.382;2024-01-25T11:13:40;151308.38;;;8.79;82.88
10006;BME280;5042;42.626;23.382;2024-01-25T11:16:15;151285.06;;;8.69;81.62
10006;BME280;5042;42.626;23.382;2024-01-25T11:18:49;151299.28;;;8.75;77.86
10006;BME280;5042;42.626;23.382;2024-01-25T11:21:22;151320.03;;;8.83;77.30
10006;BME280;5042;42.626;23.382;2024-01-25T11:23:59;151323.88;;;8.85;76.38
10006;BME280;5042;42.626;23.382;2024-01-25T11:26:26;151355.00;;;8.97;77.13
10006;BME280;5042;42.626;23.382;2024-01-25T11:28:53;151367.97;;;9.02;75.31
10006;BME280;5042;42.626;23.382;2024-01-25T11:31:21;151361.47;;;9.00;77.15
10006;BME280;5042;42.626;23.382;2024-01-25T11:33:50;151347.19;;;8.94;75.86
10006;BME280;5042;42.626;23.382;2024-01-25T11:36:20;151318.75;;;8.83;76.31
10006;BME280;5042;42.626;23.382;2024-01-25T11:38:47;151309.66;;;8.79;76.22
10006;BME280;5042;42.626;23.382;2024-01-25T11:41:14;151257.84;;;8.59;75.88
10006;BME280;5042;42.626;23.382;2024-01-25T11:43:41;151246.19;;;8.54;74.64
10006;BME280;5042;42.626;23.382;2024-01-25T11:46:08;151220.31;;;8.44;74.72
10006;BME280;5042;42.626;23.382;2024-01-25T11:48:40;151058.44;;;7.80;75.02
10006;BME280;5042;42.626;23.382;2024-01-25T11:51:09;151203.41;;;8.37;75.18
10006;BME280;5042;42.626;23.382;2024-01-25T11:53:36;151178.81;;;8.27;73.48
10006;BME280;5042;42.626;23.382;2024-01-25T11:56:04;151190.47;;;8.32;75.00
10006;BME280;5042;42.626;23.382;2024-01-25T11:58:33;151184.00;;;8.29;75.78
10006;BME280;5042;42.626;23.382;2024-01-25T12:01:01;151149.03;;;8.16;76.44
10006;BME280;5042;42.626;23.382;2024-01-25T12:03:31;151186.63;;;8.31;76.25
10006;BME280;5042;42.626;23.382;2024-01-25T12:05:59;151193.09;;;8.33;76.31
10006;BME280;5042;42.626;23.382;2024-01-25T12:08:26;151176.25;;;8.26;75.62
10006;BME280;5042;42.626;23.382;2024-01-25T12:11:05;151177.53;;;8.27;76.08
10006;BME280;5042;42.626;23.382;2024-01-25T12:13:38;151125.72;;;8.06;77.09
10006;BME280;5042;42.626;23.382;2024-01-25T12:16:06;151141.28;;;8.13;76.94
10006;BME280;5042;42.626;23.382;2024-01-25T12:18:33;151134.81;;;8.10;77.46
10006;BME280;5042;42.626;23.382;2024-01-25T12:21:03;151133.53;;;8.10;78.20
10006;BME280;5042;42.626;23.382;2024-01-25T12:23:31;151145.19;;;8.14;77.56
10006;BME280;5042;42.626;23.382;2024-01-25T12:26:00;151142.56;;;8.13;77.89
10006;BME280;5042;42.626;23.382;2024-01-25T12:28:27;151123.16;;;8.05;77.84
10006;BME280;5042;42.626;23.382;2024-01-25T12:30:55;151145.19;;;8.14;78.26
10006;BME280;5042;42.626;23.382;2024-01-25T12:33:22;151165.88;;;8.22;78.18
10006;BME280;5042;42.626;23.382;2024-01-25T12:35:49;151182.72;;;8.29;78.84
10006;BME280;5042;42.626;23.382;2024-01-25T12:38:17;151211.25;;;8.40;76.89
10006;BME280;5042;42.626;23.382;2024-01-25T12:40:46;151225.47;;;8.46;75.85
10006;BME280;5042;42.626;23.382;2024-01-25T12:43:14;151222.91;;;8.45;75.06
10006;BME280;5042;42.626;23.382;2024-01-25T12:45:41;151224.19;;;8.45;76.91
10006;BME280;5042;42.626;23.382;2024-01-25T12:48:09;151228.06;;;8.47;76.71
10006;BME280;5042;42.626;23.382;2024-01-25T12:50:36;151219.00;;;8.43;73.98
10006;BME280;5042;42.626;23.382;2024-01-25T12:53:04;151273.41;;;8.65;73.29
10006;BME280;5042;42.626;23.382;2024-01-25T12:55:33;151301.91;;;8.76;74.85